Flight Track Log - Related Links

Times and Time Zones

All times are in EDT time to prevent confusion due to time zone crossing. See the UAL118 flight status page for this flight to view local times or setup timezone preferences in your user account.

Time Position Orientation Groundspeed Altitude Reporting Facility
EDT Latitude Longitude Course Direction KTS MPH feet Rate Location/Type
Sun 03:09:58 AM 50.0110 8.2960 274° West 248 285 5,900  Level FlightAware ADS-B
Sun 03:10:08 AM 50.0140 8.2740 282° West 252 290 6,500 2,640 Climbing FlightAware ADS-B
Sun 03:10:23 AM 50.0200 8.2480 290° West 259 298 7,000 2,400 Climbing FlightAware ADS-B
Sun 03:10:53 AM 50.0350 8.1970 295° West 268 308 8,300 1,920 Climbing FlightAware ADS-B
Sun 03:11:13 AM 50.0440 8.1660 294° West 288 331 8,600 1,271 Climbing FlightAware ADS-B
Sun 03:12:18 AM 50.1020 8.0360 305° West 344 396 10,100 1,714 Climbing FlightAware ADS-B
Sun 03:12:58 AM 50.1440 7.9580 310° West 358 412 11,600 2,325 Climbing FlightAware ADS-B
Sun 03:13:38 AM 50.1980 7.8930 322° Northwest 364 419 13,200 2,250 Climbing FlightAware ADS-B
Sun 03:14:18 AM 50.2520 7.8390 327° Northwest 370 426 14,600 2,188 Climbing FlightAware ADS-B
Sun 03:15:03 AM 50.3240 7.7660 327° Northwest 387 445 16,300 2,188 Climbing FlightAware ADS-B
Sun 03:15:43 AM 50.3850 7.7050 327° Northwest 388 447 17,700 1,835 Climbing FlightAware ADS-B
Sun 03:16:28 AM 50.4530 7.6360 327° Northwest 401 461 18,900 1,624 Climbing FlightAware ADS-B
Sun 03:17:08 AM 50.5200 7.5690 328° Northwest 420 483 20,000 1,765 Climbing FlightAware ADS-B
Sun 03:17:53 AM 50.5940 7.4930 327° Northwest 424 488 21,400 1,694 Climbing FlightAware ADS-B
Sun 03:18:33 AM 50.6610 7.4240 327° Northwest 426 490 22,400 1,575 Climbing FlightAware ADS-B
Sun 03:19:13 AM 50.7260 7.3570 327° Northwest 428 493 23,500 1,624 Climbing FlightAware ADS-B
Sun 03:19:58 AM 50.8040 7.2760 327° Northwest 441 507 24,700 1,553 Climbing FlightAware ADS-B
Sun 03:20:38 AM 50.8730 7.2050 327° Northwest 443 510 25,700 1,341 Climbing FlightAware ADS-B
Sun 03:21:23 AM 50.9470 7.1260 326° Northwest 440 506 26,600 1,412 Climbing FlightAware ADS-B
Sun 03:22:03 AM 51.0110 7.0450 321° Northwest 443 510 27,700 1,800 Climbing FlightAware ADS-B
Sun 03:22:43 AM 51.0740 6.9580 319° Northwest 435 501 29,000 1,906 Climbing FlightAware ADS-B
Sun 03:23:28 AM 51.1400 6.8590 317° Northwest 418 481 30,400 1,624 Climbing FlightAware ADS-B
Sun 03:24:08 AM 51.1930 6.7760 316° Northwest 415 478 31,300 1,350 Climbing FlightAware ADS-B
Sun 03:24:48 AM 51.2510 6.6860 316° Northwest 412 474 32,200 1,425 Climbing FlightAware ADS-B
Sun 03:25:28 AM 51.3060 6.6020 316° Northwest 405 466 33,200 1,271 Climbing FlightAware ADS-B
Sun 03:26:13 AM 51.3680 6.5060 316° Northwest 404 465 34,000 565 Climbing FlightAware ADS-B
Sun 03:26:53 AM 51.4240 6.4210 317° Northwest 405 466 34,000  Level FlightAware ADS-B
Sun 03:27:38 AM 51.4810 6.3310 315° West 409 471 34,000  Level FlightAware ADS-B
Sun 03:28:18 AM 51.5370 6.2440 316° Northwest 409 471 34,000  Level FlightAware ADS-B
Sun 03:29:03 AM 51.5990 6.1470 316° Northwest 408 470 34,000  Level FlightAware ADS-B
Sun 03:29:43 AM 51.6530 6.0620 316° Northwest 407 468 34,000  Level FlightAware ADS-B
Sun 03:30:23 AM 51.7040 5.9770 314° West 407 468 34,000  Level FlightAware ADS-B
Sun 03:31:08 AM 51.7620 5.8800 314° West 408 470 34,000  Level FlightAware ADS-B
Sun 03:31:48 AM 51.8170 5.7890 314° West 409 471 34,000 -1,579 Level FlightAware ADS-B
Sun 03:32:05 AM 51.8462 5.7601 314° West 462 532 32,500 -2,571 Descending FlightAware UK
Sun 03:32:23 AM 51.8686 5.7203 312° West 460 529 32,500 3,214 Level FlightAware UK
Sun 03:32:33 AM 51.8720 5.6970 312° West 410 472 34,000  Climbing FlightAware ADS-B
Sun 03:32:53 AM 51.9058 5.6535 312° West 462 532 32,500 -2,368 Descending FlightAware UK
Sun 03:33:11 AM 51.9286 5.6143 313° West 462 532 32,500 4,500 Level FlightAware UK
Sun 03:33:13 AM 51.9300 5.6000 313° West 410 472 34,000  Climbing FlightAware ADS-B
Sun 03:33:47 AM 51.9753 5.5352 313° West 462 532 32,500  Descending FlightAware UK
Sun 03:33:53 AM 51.9800 5.5150 313° West 410 472 34,000  Climbing FlightAware ADS-B
Sun 03:34:23 AM 52.0219 5.4560 313° West 460 529 32,500  Descending FlightAware UK
Sun 03:34:38 AM 52.0410 5.4140 313° West 410 472 34,000  Climbing FlightAware ADS-B
Sun 03:34:59 AM 52.0680 5.3762 313° West 462 532 32,500 -2,308 Descending FlightAware UK
Sun 03:35:17 AM 52.0917 5.3368 314° West 460 529 32,500 4,737 Level FlightAware UK
Sun 03:35:18 AM 52.0940 5.3230 314° West 410 472 34,000  Climbing FlightAware ADS-B
Sun 03:35:41 AM 52.1235 5.2843 314° West 462 532 32,500  Descending FlightAware UK
Sun 03:36:03 AM 52.1510 5.2270 314° West 411 473 34,000  Climbing FlightAware ADS-B
Sun 03:36:35 AM 52.1949 5.1655 314° West 462 532 32,500  Descending FlightAware UK
Sun 03:36:43 AM 52.2030 5.1380 314° West 412 474 34,000 1,698 Climbing FlightAware ADS-B
Sun 03:37:28 AM 52.2640 5.0330 314° West 412 474 34,000 -1,098 Level FlightAware ADS-B
Sun 03:38:05 AM 52.3114 4.9635 314° West 460 529 32,500  Descending FlightAware UK
Sun 03:38:08 AM 52.3160 4.9430 314° West 413 475 34,000  Climbing FlightAware ADS-B
Sun 03:38:23 AM 52.3354 4.9235 314° West 460 529 32,500 -2,308 Descending FlightAware UK
Sun 03:38:47 AM 52.3677 4.8704 315° West 462 532 32,500 3,000 Level FlightAware UK
Sun 03:38:53 AM 52.3710 4.8480 315° West 413 475 34,000  Climbing FlightAware ADS-B
Sun 03:39:23 AM 52.4136 4.7884 315° West 462 532 32,500  Descending FlightAware UK
Sun 03:39:33 AM 52.4280 4.7500 315° West 413 475 34,000  Climbing FlightAware ADS-B
Sun 03:39:53 AM 52.4539 4.7217 315° West 464 534 32,500 -2,368 Descending FlightAware UK
Sun 03:40:11 AM 52.4771 4.6806 313° West 464 534 32,500 3,600 Level FlightAware UK
Sun 03:40:18 AM 52.4880 4.6450 313° West 413 475 34,000  Climbing FlightAware ADS-B
Sun 03:40:41 AM 52.5160 4.6124 313° West 462 532 32,500  Descending FlightAware UK
Sun 03:40:58 AM 52.5390 4.5570 313° West 415 478 34,000  Climbing FlightAware ADS-B
Sun 03:41:23 AM 52.5708 4.5174 313° West 460 529 32,500  Descending FlightAware UK
Sun 03:41:38 AM 52.5910 4.4650 313° West 416 479 34,000 1,500 Climbing FlightAware ADS-B
Sun 03:42:23 AM 52.6530 4.3570 313° West 418 481 34,000 -1,429 Level FlightAware ADS-B
Sun 03:42:41 AM 52.6727 4.3384 313° West 462 532 32,500  Descending FlightAware UK
Sun 03:43:03 AM 52.7040 4.2670 313° West 418 481 34,000 1,343 Climbing FlightAware ADS-B
Sun 03:43:48 AM 52.7630 4.1630 313° West 418 481 34,000 -1,216 Level FlightAware ADS-B
Sun 03:44:17 AM 52.7992 4.1153 313° West 462 532 32,500  Descending FlightAware UK
Sun 03:44:28 AM 52.8150 4.0700 313° West 419 482 34,000  Climbing FlightAware ADS-B
Sun 03:44:59 AM 52.8542 4.0170 313° West 462 532 32,500  Descending FlightAware UK
Sun 03:45:08 AM 52.8660 3.9780 313° West 419 482 34,000  Climbing FlightAware ADS-B
Sun 03:45:23 AM 52.8860 3.9609 313° West 462 532 32,500 -2,308 Descending FlightAware UK
Sun 03:45:47 AM 52.9174 3.9047 313° West 464 534 32,500 3,600 Level FlightAware UK
Sun 03:45:48 AM 52.9210 3.8800 313° West 419 482 34,000  Climbing FlightAware ADS-B
Sun 03:46:11 AM 52.9490 3.8482 313° West 462 532 32,500  Descending FlightAware UK
Sun 03:46:33 AM 52.9790 3.7760 313° West 419 482 34,000  Climbing FlightAware ADS-B
Sun 03:46:53 AM 53.0038 3.7490 313° West 462 532 32,500 -2,368 Descending FlightAware UK
Sun 03:47:11 AM 53.0273 3.7064 312° West 462 532 32,500 4,500 Level FlightAware UK
Sun 03:47:13 AM 53.0320 3.6800 312° West 420 483 34,000  Climbing FlightAware ADS-B
Sun 03:47:29 AM 53.0508 3.6639 312° West 462 532 32,500 -2,647 Descending FlightAware UK
Sun 03:47:47 AM 53.0740 3.6217 313° West 462 532 32,500 3,103 Level FlightAware UK
Sun 03:47:58 AM 53.0920 3.5720 313° West 419 482 34,000  Climbing FlightAware ADS-B
Sun 03:48:29 AM 53.1292 3.5218 313° West 462 532 32,500  Descending FlightAware UK
Sun 03:48:38 AM 53.1440 3.4770 313° West 419 482 34,000  Climbing FlightAware ADS-B
Sun 03:48:59 AM 53.1684 3.4509 313° West 462 532 32,500 -2,308 Descending FlightAware UK
Sun 03:49:17 AM 53.1919 3.4079 312° West 462 532 32,500 3,750 Level FlightAware UK
Sun 03:49:23 AM 53.2040 3.3680 312° West 420 483 34,000  Climbing FlightAware ADS-B
Sun 03:49:47 AM 53.2312 3.3362 312° West 462 532 32,500  Descending FlightAware UK
Sun 03:50:03 AM 53.2560 3.2720 312° West 421 484 34,000  Climbing FlightAware ADS-B
Sun 03:50:23 AM 53.2780 3.2498 312° West 462 532 32,500  Descending FlightAware UK
Sun 03:50:43 AM 53.3080 3.1760 312° West 420 483 34,000  Climbing FlightAware ADS-B
Sun 03:50:59 AM 53.3249 3.1632 312° West 462 532 32,500 -2,647 Descending FlightAware UK
Sun 03:51:17 AM 53.3484 3.1200 312° West 462 532 32,500 3,103 Level FlightAware UK
Sun 03:51:28 AM 53.3650 3.0700 312° West 421 484 34,000  Climbing FlightAware ADS-B
Sun 03:51:52 AM 53.3953 3.0335 312° West 462 532 32,500  Descending FlightAware UK
Sun 03:52:08 AM 53.4170 2.9700 312° West 416 479 34,000  Climbing FlightAware ADS-B
Sun 03:52:28 AM 53.4361 2.9403 312° West 462 532 32,500 -2,368 Descending FlightAware UK
Sun 03:52:46 AM 53.4548 2.8921 303° West 464 534 32,500 3,600 Level FlightAware UK
Sun 03:52:53 AM 53.4630 2.8540 303° West 412 474 34,000  Climbing FlightAware ADS-B
Sun 03:53:16 AM 53.4855 2.8108 303° West 464 534 32,500  Descending FlightAware UK
Sun 03:53:33 AM 53.5030 2.7460 303° West 411 473 34,000  Climbing FlightAware ADS-B
Sun 03:53:52 AM 53.5218 2.7136 303° West 464 534 32,500 -2,432 Descending FlightAware UK
Sun 03:54:10 AM 53.5400 2.6648 302° West 464 534 32,500 3,462 Level FlightAware UK
Sun 03:54:18 AM 53.5490 2.6240 302° West 411 473 34,000  Climbing FlightAware ADS-B
Sun 03:54:40 AM 53.5702 2.5837 302° West 464 534 32,500  Descending FlightAware UK
Sun 03:54:58 AM 53.5900 2.5140 302° West 412 474 34,000  Climbing FlightAware ADS-B
Sun 03:55:16 AM 53.6065 2.4863 302° West 464 534 32,500  Descending FlightAware UK
Sun 03:55:43 AM 53.6350 2.3910 302° West 412 474 34,000  Climbing FlightAware ADS-B
Sun 03:55:58 AM 53.6491 2.3720 302° West 466 536 32,500 -2,727 Descending FlightAware UK
Sun 03:56:16 AM 53.6676 2.3225 302° West 464 534 32,500 3,600 Level FlightAware UK
Sun 03:56:23 AM 53.6760 2.2800 302° West 413 475 34,000  Climbing FlightAware ADS-B
Sun 03:56:40 AM 53.6918 2.2576 302° West 466 536 32,500 -2,571 Descending FlightAware UK
Sun 03:56:58 AM 53.7100 2.2083 302° West 466 536 32,500 3,913 Level FlightAware UK
Sun 03:57:03 AM 53.7150 2.1740 302° West 413 475 34,000  Climbing FlightAware ADS-B
Sun 03:57:22 AM 53.7340 2.1430 302° West 468 539 32,500 -2,432 Descending FlightAware UK
Sun 03:57:40 AM 53.7521 2.0935 302° West 466 536 32,500 3,462 Level FlightAware UK
Sun 03:57:48 AM 53.7600 2.0520 302° West 412 474 34,000  Climbing FlightAware ADS-B
Sun 03:58:04 AM 53.7761 2.0274 302° West 468 539 32,500 -2,727 Descending FlightAware UK
Sun 03:58:21 AM 53.7937 1.9789 302° West 464 534 32,500 3,750 Level FlightAware UK
Sun 03:58:28 AM 53.8000 1.9430 302° West 412 474 34,000  Climbing FlightAware ADS-B
Sun 03:58:52 AM 53.8240 1.8956 302° West 464 534 32,500  Descending FlightAware UK
Sun 03:59:08 AM 53.8390 1.8340 302° West 412 474 34,000  Climbing FlightAware ADS-B
Sun 03:59:27 AM 53.8598 1.7968 302° West 464 534 32,500 -2,432 Descending FlightAware UK
Sun 03:59:45 AM 53.8778 1.7469 301° West 466 536 32,500 3,462 Level FlightAware UK
Sun 03:59:53 AM 53.8840 1.7110 301° West 413 475 34,000  Climbing FlightAware ADS-B
Sun 04:00:09 AM 53.9018 1.6804 301° West 464 534 32,500 -2,647 Descending FlightAware UK
Sun 04:00:27 AM 53.9195 1.6311 301° West 464 534 32,500 3,750 Level FlightAware UK
Sun 04:00:33 AM 53.9230 1.6020 301° West 410 472 34,000  Climbing FlightAware ADS-B
Sun 04:00:51 AM 53.9433 1.5646 301° West 464 534 32,500  Descending FlightAware UK
Sun 04:01:18 AM 53.9680 1.4750 301° West 411 473 34,000  Climbing FlightAware ADS-B
Sun 04:01:33 AM 53.9848 1.4485 301° West 464 534 32,500 -2,727 Descending FlightAware UK
Sun 04:01:51 AM 54.0026 1.3986 301° West 464 534 32,500 3,600 Level FlightAware UK
Sun 04:01:58 AM 54.0060 1.3690 301° West 411 473 34,000  Climbing FlightAware ADS-B
Sun 04:02:21 AM 54.0321 1.3152 301° West 460 529 32,500  Descending FlightAware UK
Sun 04:02:43 AM 54.0510 1.2410 301° West 412 474 34,000  Climbing FlightAware ADS-B
Sun 04:03:03 AM 54.0737 1.1981 301° West 462 532 32,500  Descending FlightAware UK
Sun 04:03:23 AM 54.0910 1.1290 301° West 413 475 34,000  Climbing FlightAware ADS-B
Sun 04:03:39 AM 54.1093 1.0972 301° West 464 534 32,500 -2,647 Descending FlightAware UK
Sun 04:03:57 AM 54.1270 1.0467 301° West 464 534 32,500 3,750 Level FlightAware UK
Sun 04:04:03 AM 54.1260 1.0300 301° West 413 475 34,000  Climbing FlightAware ADS-B
Sun 04:04:21 AM 54.1506 0.9798 301° West 462 532 32,500  Descending FlightAware UK
Sun 04:04:48 AM 54.1720 0.8960 301° West 413 475 34,000  Climbing FlightAware ADS-B
Sun 04:05:03 AM 54.1919 0.8615 301° West 464 534 32,500  Descending FlightAware UK
Sun 04:05:28 AM 54.2100 0.7870 301° West 414 476 34,000  Climbing FlightAware ADS-B
Sun 04:05:45 AM 54.2329 0.7432 301° West 466 536 32,500  Descending FlightAware UK
Sun 04:06:08 AM 54.2510 0.6690 301° West 415 478 34,000  Climbing FlightAware ADS-B
Sun 04:06:27 AM 54.2741 0.6247 301° West 468 539 32,500  Descending FlightAware UK
Sun 04:06:53 AM 54.2950 0.5420 301° West 413 475 34,000  Climbing FlightAware ADS-B
Sun 04:07:09 AM 54.3153 0.5045 301° West 468 539 32,500  Descending FlightAware UK
Sun 04:07:33 AM 54.3330 0.4300 301° West 412 474 34,000  Climbing FlightAware ADS-B
Sun 04:07:57 AM 54.3619 0.3683 301° West 468 539 32,500  Descending FlightAware UK
Sun 04:08:18 AM 54.3770 0.3020 301° West 410 472 34,000  Climbing FlightAware ADS-B
Sun 04:08:45 AM 54.4081 0.2323 301° West 466 536 32,500  Descending FlightAware UK
Sun 04:08:58 AM 54.4150 0.1900 301° West 410 472 34,000  Climbing FlightAware ADS-B
Sun 04:09:33 AM 54.4540 0.0969 301° West 462 532 32,500  Descending FlightAware UK
Sun 04:09:38 AM 54.4510 0.0810 301° West 409 471 34,000  Climbing FlightAware ADS-B
Sun 04:10:03 AM 54.4826 0.0119 301° West 464 534 32,500  Descending FlightAware UK
Sun 04:10:23 AM 54.4950 -0.0490 301° West 408 470 34,000  Climbing FlightAware ADS-B
Sun 04:10:51 AM 54.5281 -0.1240 301° West 460 529 32,500  Descending FlightAware UK
Sun 04:11:03 AM 54.5320 -0.1590 301° West 407 468 34,000  Climbing FlightAware ADS-B
Sun 04:11:21 AM 54.5565 -0.2088 301° West 458 527 32,500 -2,500 Descending FlightAware UK
Sun 04:11:39 AM 54.5734 -0.2595 300° West 456 525 32,500 3,333 Level FlightAware UK
Sun 04:11:48 AM 54.5740 -0.2870 300° West 403 464 34,000  Climbing FlightAware ADS-B
Sun 04:12:08 AM 54.6012 -0.3432 300° West 454 522 32,500  Descending FlightAware UK
Sun 04:12:28 AM 54.6110 -0.3990 300° West 407 468 34,000  Climbing FlightAware ADS-B
Sun 04:12:44 AM 54.6348 -0.4448 300° West 456 525 32,500 -2,647 Descending FlightAware UK
Sun 04:13:02 AM 54.6518 -0.4959 300° West 458 527 32,500 3,750 Level FlightAware UK
Sun 04:13:08 AM 54.6480 -0.5110 300° West 410 472 34,000  Climbing FlightAware ADS-B
Sun 04:13:26 AM 54.6743 -0.5641 300° West 460 529 32,500  Descending FlightAware UK
Sun 04:13:48 AM 54.6860 -0.6280 300° West 409 471 34,000  Climbing FlightAware ADS-B
Sun 04:14:08 AM 54.7140 -0.6855 300° West 460 529 32,500  Descending FlightAware UK
Sun 04:14:33 AM 54.7270 -0.7530 300° West 408 470 34,000  Climbing FlightAware ADS-B
Sun 04:14:50 AM 54.7531 -0.8056 300° West 456 525 32,500  Descending FlightAware UK
Sun 04:15:13 AM 54.7650 -0.8710 300° West 407 468 34,000  Climbing FlightAware ADS-B
Sun 04:15:38 AM 54.7975 -0.9425 300° West 452 520 32,500 -2,093 Descending FlightAware UK
Sun 04:15:56 AM 54.8142 -0.9941 299° West 454 522 32,500 4,500 Level FlightAware UK
Sun 04:15:58 AM 54.8060 -0.9960 299° West 410 472 34,000  Climbing FlightAware ADS-B
Sun 04:16:14 AM 54.8307 -1.0454 299° West 456 525 32,500 -2,647 Descending FlightAware UK
Sun 04:16:32 AM 54.8475 -1.0975 299° West 456 525 32,500 3,750 Level FlightAware UK
Sun 04:16:38 AM 54.8430 -1.1120 299° West 414 476 34,000  Climbing FlightAware ADS-B
Sun 04:17:02 AM 54.8760 -1.1865 299° West 456 525 32,500  Descending FlightAware UK
Sun 04:17:18 AM 54.8810 -1.2290 299° West 420 483 34,000  Climbing FlightAware ADS-B
Sun 04:17:38 AM 54.9101 -1.2932 299° West 460 529 32,500  Descending FlightAware UK
Sun 04:18:03 AM 54.9240 -1.3640 299° West 426 490 34,000 1,385 Climbing FlightAware ADS-B
Sun 04:18:43 AM 54.9620 -1.4850 299° West 430 495 34,000 -1,385 Level FlightAware ADS-B
Sun 04:19:08 AM 54.9965 -1.5658 299° West 470 541 32,500  Descending FlightAware UK
Sun 04:19:23 AM 54.9980 -1.6000 299° West 434 499 34,000  Climbing FlightAware ADS-B
Sun 04:20:02 AM 55.0486 -1.7314 299° West 470 541 32,500  Descending FlightAware UK
Sun 04:20:08 AM 55.0420 -1.7430 299° West 432 497 34,000 -261 Climbing FlightAware ADS-B
Sun 04:20:25 AM 55.0698 -1.8059 299° West 470 541 32,400 -2,571 Descending FlightAware UK
Sun 04:20:43 AM 55.0855 -1.8618 296° West 470 541 32,500 4,174 Climbing FlightAware UK
Sun 04:20:48 AM 55.0760 -1.8630 296° West 427 491 34,000  Climbing FlightAware ADS-B
Sun 04:21:07 AM 55.1064 -1.9365 296° West 468 539 32,500 -2,432 Descending FlightAware UK
Sun 04:21:25 AM 55.1220 -1.9926 296° West 466 536 32,500 3,462 Level FlightAware UK
Sun 04:21:33 AM 55.1170 -2.0080 296° West 426 490 34,000  Climbing FlightAware ADS-B
Sun 04:21:49 AM 55.1428 -2.0673 296° West 464 534 32,500 -2,647 Descending FlightAware UK
Sun 04:22:07 AM 55.1583 -2.1226 296° West 462 532 32,500 3,750 Level FlightAware UK
Sun 04:22:13 AM 55.1510 -2.1310 296° West 426 490 34,000  Climbing FlightAware ADS-B
Sun 04:22:37 AM 55.1842 -2.2159 296° West 462 532 32,500  Descending FlightAware UK
Sun 04:22:53 AM 55.1820 -2.2450 296° West 426 490 34,000  Climbing FlightAware ADS-B
Sun 04:22:55 AM 55.1997 -2.2719 296° West 460 529 32,500 -5,400 Descending FlightAware UK
Sun 04:23:13 AM 55.2151 -2.3279 296° West 458 527 32,200 -1,429 Descending FlightAware UK
Sun 04:23:37 AM 55.2358 -2.4026 296° West 462 532 31,500 2,160 Descending FlightAware UK
Sun 04:23:38 AM 55.2220 -2.3900 296° West 428 493 33,100 2,195 Climbing FlightAware ADS-B
Sun 04:24:18 AM 55.2570 -2.5160 296° West 428 493 33,000 -1,477 Descending FlightAware ADS-B
Sun 04:24:43 AM 55.2926 -2.6097 296° West 462 532 31,500  Descending FlightAware UK
Sun 04:25:03 AM 55.2950 -2.6580 296° West 432 497 33,000  Climbing FlightAware ADS-B
Sun 04:25:31 AM 55.3338 -2.7616 296° West 466 536 31,500  Descending FlightAware UK
Sun 04:25:43 AM 55.3300 -2.7870 296° West 435 501 33,000  Climbing FlightAware ADS-B
Sun 04:26:01 AM 55.3598 -2.8579 296° West 466 536 31,500 -2,500 Descending FlightAware UK
Sun 04:26:19 AM 55.3754 -2.9158 295° West 468 539 31,500 3,333 Level FlightAware UK
Sun 04:26:28 AM 55.3690 -2.9290 295° West 437 503 33,000  Climbing FlightAware ADS-B
Sun 04:26:43 AM 55.3962 -2.9931 295° West 472 543 31,500 -2,727 Descending FlightAware UK
Sun 04:27:01 AM 55.4117 -3.0512 295° West 474 545 31,500 3,600 Level FlightAware UK
Sun 04:27:08 AM 55.4010 -3.0510 295° West 437 503 33,000  Climbing FlightAware ADS-B
Sun 04:27:25 AM 55.4324 -3.1286 295° West 474 545 31,500 -2,571 Descending FlightAware UK
Sun 04:27:43 AM 55.4476 -3.1859 295° West 476 548 31,500 3,913 Level FlightAware UK
Sun 04:27:48 AM 55.4370 -3.1850 295° West 434 499 33,000  Climbing FlightAware ADS-B
Sun 04:28:13 AM 55.4731 -3.2822 295° West 474 545 31,500 -2,093 Descending FlightAware UK
Sun 04:28:31 AM 55.4883 -3.3396 295° West 472 543 31,500 4,500 Level FlightAware UK
Sun 04:28:33 AM 55.4740 -3.3250 295° West 430 495 33,000  Climbing FlightAware ADS-B
Sun 04:28:49 AM 55.5032 -3.3963 295° West 470 541 31,500  Descending FlightAware UK
Sun 04:29:13 AM 55.5070 -3.4520 295° West 428 493 33,000  Climbing FlightAware ADS-B
Sun 04:29:31 AM 55.5381 -3.5292 295° West 470 541 31,500 -2,500 Descending FlightAware UK
Sun 04:29:49 AM 55.5530 -3.5858 295° West 468 539 31,500 3,333 Level FlightAware UK
Sun 04:29:58 AM 55.5450 -3.5950 295° West 425 489 33,000  Climbing FlightAware ADS-B
Sun 04:30:25 AM 55.5825 -3.6995 295° West 464 534 31,500  Descending FlightAware UK
Sun 04:30:38 AM 55.5780 -3.7240 295° West 424 488 33,000  Climbing FlightAware ADS-B
Sun 04:31:01 AM 55.6119 -3.8128 295° West 464 534 31,500 -2,195 Descending FlightAware UK
Sun 04:31:19 AM 55.6265 -3.8694 295° West 462 532 31,500 4,091 Level FlightAware UK
Sun 04:31:23 AM 55.6140 -3.8610 295° West 422 486 33,000  Climbing FlightAware ADS-B
Sun 04:31:43 AM 55.6458 -3.9447 295° West 460 529 31,500  Descending FlightAware UK
Sun 04:32:03 AM 55.6460 -3.9860 295° West 421 484 33,000  Climbing FlightAware ADS-B
Sun 04:32:19 AM 55.6747 -4.0575 295° West 458 527 31,500 -2,647 Descending FlightAware UK
Sun 04:32:37 AM 55.6891 -4.1140 294° West 458 527 31,500 3,103 Level FlightAware UK
Sun 04:32:48 AM 55.6820 -4.1280 294° West 422 486 33,000  Climbing FlightAware ADS-B
Sun 04:33:07 AM 55.7131 -4.2080 294° West 458 527 31,500 -2,432 Descending FlightAware UK
Sun 04:33:25 AM 55.7276 -4.2645 295° West 460 529 31,500 4,286 Level FlightAware UK
Sun 04:33:28 AM 55.7120 -4.2460 295° West 418 481 33,000  Climbing FlightAware ADS-B
Sun 04:33:49 AM 55.7466 -4.3401 295° West 456 525 31,500  Descending FlightAware UK
Sun 04:34:08 AM 55.7430 -4.3690 295° West 419 482 33,000  Climbing FlightAware ADS-B
Sun 04:34:24 AM 55.7749 -4.4529 295° West 458 527 31,500 -2,647 Descending FlightAware UK
Sun 04:34:42 AM 55.7892 -4.5093 294° West 458 527 31,500 3,103 Level FlightAware UK
Sun 04:34:53 AM 55.7790 -4.5110 294° West 421 484 33,000  Climbing FlightAware ADS-B
Sun 04:35:12 AM 55.8130 -4.6057 294° West 458 527 31,500  Descending FlightAware UK
Sun 04:35:28 AM 55.8050 -4.6160 294° West 423 487 33,000  Climbing FlightAware ADS-B
Sun 04:35:30 AM 55.8274 -4.6634 294° West 458 527 31,500 -4,500 Descending FlightAware UK
Sun 04:35:48 AM 55.8419 -4.7210 294° West 460 529 31,500  Level FlightAware UK
Sun 04:36:06 AM 55.8562 -4.7784 294° West 460 529 31,500 3,000 Level FlightAware UK
Sun 04:36:18 AM 55.8480 -4.7880 294° West 426 490 33,000  Climbing FlightAware ADS-B
Sun 04:36:36 AM 55.8800 -4.8750 294° West 462 532 31,500 -2,500 Descending FlightAware UK
Sun 04:36:54 AM 55.8943 -4.9333 294° West 460 529 31,500 4,091 Level FlightAware UK
Sun 04:36:58 AM 55.8800 -4.9170 294° West 428 493 33,000  Climbing FlightAware ADS-B
Sun 04:37:18 AM 55.9134 -5.0110 294° West 460 529 31,500 -2,368 Descending FlightAware UK
Sun 04:37:36 AM 55.9277 -5.0694 294° West 462 532 31,500 4,500 Level FlightAware UK
Sun 04:37:38 AM 55.9110 -5.0460 294° West 429 494 33,000  Climbing FlightAware ADS-B
Sun 04:37:54 AM 55.9417 -5.1274 294° West 464 534 31,500 -2,647 Descending FlightAware UK
Sun 04:38:12 AM 55.9560 -5.1862 293° West 464 534 31,500 3,103 Level FlightAware UK
Sun 04:38:23 AM 55.9450 -5.1850 293° West 431 496 33,000  Climbing FlightAware ADS-B
Sun 04:38:42 AM 55.9798 -5.2844 293° West 464 534 31,500 -2,432 Descending FlightAware UK
Sun 04:39:00 AM 55.9941 -5.3435 293° West 464 534 31,500 4,286 Level FlightAware UK
Sun 04:39:03 AM 55.9800 -5.3260 293° West 433 498 33,000  Climbing FlightAware ADS-B
Sun 04:39:18 AM 56.0084 -5.4028 293° West 464 534 31,500 -2,727 Descending FlightAware UK
Sun 04:39:36 AM 56.0226 -5.4623 293° West 466 536 31,500 3,000 Level FlightAware UK
Sun 04:39:48 AM 56.0160 -5.4750 293° West 436 502 33,000  Climbing FlightAware ADS-B
Sun 04:40:06 AM 56.0463 -5.5618 293° West 466 536 31,500 -2,500 Descending FlightAware UK
Sun 04:40:24 AM 56.0606 -5.6217 293° West 466 536 31,500 4,091 Level FlightAware UK
Sun 04:40:28 AM 56.0480 -5.6100 293° West 438 504 33,000  Climbing FlightAware ADS-B
Sun 04:40:48 AM 56.0797 -5.7019 293° West 470 541 31,500 -2,368 Descending FlightAware UK
Sun 04:41:06 AM 56.0940 -5.7622 293° West 472 543 31,500 4,500 Level FlightAware UK
Sun 04:41:08 AM 56.0790 -5.7400 293° West 439 505 33,000  Climbing FlightAware ADS-B
Sun 04:41:24 AM 56.1082 -5.8224 293° West 470 541 31,500 -2,647 Descending FlightAware UK
Sun 04:41:42 AM 56.1224 -5.8826 293° West 470 541 31,500 3,103 Level FlightAware UK
Sun 04:41:53 AM 56.1150 -5.8940 293° West 437 503 33,000  Climbing FlightAware ADS-B
Sun 04:42:12 AM 56.1460 -5.9828 293° West 470 541 31,500 -2,432 Descending FlightAware UK
Sun 04:42:30 AM 56.1600 -6.0429 293° West 472 543 31,500 4,286 Level FlightAware UK
Sun 04:42:33 AM 56.1470 -6.0270 293° West 437 503 33,000  Climbing FlightAware ADS-B
Sun 04:42:54 AM 56.1785 -6.1231 293° West 470 541 31,500 -2,308 Descending FlightAware UK
Sun 04:43:12 AM 56.1925 -6.1831 293° West 468 539 31,500 3,750 Level FlightAware UK
Sun 04:43:18 AM 56.1820 -6.1760 293° West 436 502 33,000  Climbing FlightAware ADS-B
Sun 04:43:36 AM 56.2110 -6.2631 293° West 468 539 31,500 -2,500 Descending FlightAware UK
Sun 04:43:54 AM 56.2248 -6.3231 293° West 468 539 31,500 4,091 Level FlightAware UK
Sun 04:43:58 AM 56.2140 -6.3170 293° West 435 501 33,000  Climbing FlightAware ADS-B
Sun 04:44:18 AM 56.2432 -6.4030 293° West 466 536 31,500 -2,368 Descending FlightAware UK
Sun 04:44:36 AM 56.2570 -6.4628 293° West 466 536 31,500 4,500 Level FlightAware UK
Sun 04:44:38 AM 56.2450 -6.4500 293° West 434 499 33,000  Climbing FlightAware ADS-B
Sun 04:45:00 AM 56.2752 -6.5427 293° West 466 536 31,500 -2,250 Descending FlightAware UK
Sun 04:45:18 AM 56.2886 -6.6019 292° West 466 536 31,500 3,913 Level FlightAware UK
Sun 04:45:23 AM 56.2790 -6.6000 292° West 436 502 33,000  Climbing FlightAware ADS-B
Sun 04:45:54 AM 56.3159 -6.7217 292° West 464 534 31,500  Descending FlightAware UK
Sun 04:46:03 AM 56.3100 -6.7330 292° West 436 502 33,000  Climbing FlightAware ADS-B
Sun 04:46:18 AM 56.3339 -6.8016 292° West 462 532 31,500 -2,727 Descending FlightAware UK
Sun 04:46:36 AM 56.3473 -6.8615 292° West 462 532 31,500 3,000 Level FlightAware UK
Sun 04:46:48 AM 56.3440 -6.8850 292° West 436 502 33,000  Climbing FlightAware ADS-B
Sun 04:47:06 AM 56.3696 -6.9615 292° West 462 532 31,500 -2,500 Descending FlightAware UK
Sun 04:47:24 AM 56.3831 -7.0217 292° West 462 532 31,500 4,091 Level FlightAware UK
Sun 04:47:28 AM 56.3740 -7.0200 292° West 437 503 33,000  Climbing FlightAware ADS-B
Sun 04:47:48 AM 56.4008 -7.1022 292° West 462 532 31,500 -2,368 Descending FlightAware UK
Sun 04:48:06 AM 56.4141 -7.1626 292° West 460 529 31,500 3,600 Level FlightAware UK
Sun 04:48:13 AM 56.4080 -7.1700 292° West 438 504 33,000  Climbing FlightAware ADS-B
Sun 04:48:30 AM 56.4320 -7.2433 292° West 460 529 31,500 -2,571 Descending FlightAware UK
Sun 04:48:48 AM 56.4454 -7.3040 292° West 458 527 31,500  Level FlightAware UK
Sun 04:49:06 AM 56.4590 -7.3648 292° West 458 527 31,500  Level FlightAware UK
Sun 04:49:24 AM 56.4722 -7.4261 291° West 458 527 31,500  Level FlightAware UK
Sun 04:49:42 AM 56.4857 -7.4877 292° West 462 532 31,500  Level FlightAware UK
Sun 04:50:00 AM 56.4990 -7.5491 291° West 464 534 31,500  Level FlightAware UK
Sun 04:50:18 AM 56.5126 -7.6111 292° West 464 534 31,500  Level FlightAware UK
Sun 04:50:36 AM 56.5260 -7.6734 291° West 466 536 31,500  Level FlightAware UK
Sun 04:50:54 AM 56.5394 -7.7357 291° West 466 536 31,500 2,432 Level FlightAware UK
Sun 04:51:13 AM 56.5460 -7.7990 291° West 450 518 33,000  Climbing FlightAware ADS-B
Sun 04:51:36 AM 56.5707 -7.8818 291° West 468 539 31,500 -2,195 Descending FlightAware UK
Sun 04:51:54 AM 56.5841 -7.9445 291° West 468 539 31,500 2,813 Level FlightAware UK
Sun 04:52:08 AM 56.5870 -7.9900 291° West 452 520 33,000  Climbing FlightAware ADS-B
Sun 04:52:24 AM 56.6065 -8.0495 291° West 466 536 31,500 -2,647 Descending FlightAware UK
Sun 04:52:42 AM 56.6198 -8.1126 291° West 466 536 31,500 3,750 Level FlightAware UK
Sun 04:52:48 AM 56.6170 -8.1330 291° West 453 521 33,000  Climbing FlightAware ADS-B
Sun 04:53:06 AM 56.6377 -8.1968 291° West 468 539 31,500 -2,500 Descending FlightAware UK
Sun 04:53:24 AM 56.6510 -8.2602 291° West 468 539 31,500 3,333 Level FlightAware UK
Sun 04:53:33 AM 56.6510 -8.2910 291° West 454 522 33,000  Climbing FlightAware ADS-B
Sun 04:53:48 AM 56.6686 -8.3450 291° West 468 539 31,500 -2,727 Descending FlightAware UK
Sun 04:54:06 AM 56.6818 -8.4086 291° West 468 539 31,500 3,600 Level FlightAware UK
Sun 04:54:13 AM 56.6800 -8.4320 291° West 454 522 33,000  Climbing FlightAware ADS-B
Sun 04:54:30 AM 56.6994 -8.4934 291° West 466 536 31,500 -2,195 Descending FlightAware UK
Sun 04:54:54 AM 56.7170 -8.5784 291° West 464 534 31,500 3,214 Level FlightAware UK
Sun 04:54:58 AM 56.7140 -8.5940 291° West 456 525 33,000  Climbing FlightAware ADS-B
Sun 04:55:18 AM 56.7346 -8.6635 291° West 466 536 31,500 -2,368 Descending FlightAware UK
Sun 04:55:36 AM 56.7479 -8.7275 291° West 468 539 31,500 4,500 Level FlightAware UK
Sun 04:55:38 AM 56.7430 -8.7350 291° West 456 525 33,000  Climbing FlightAware ADS-B
Sun 04:55:54 AM 56.7610 -8.7916 291° West 466 536 31,500 -2,647 Descending FlightAware UK
Sun 04:56:12 AM 56.7741 -8.8559 290° West 468 539 31,500 3,750 Level FlightAware UK
Sun 04:56:18 AM 56.7710 -8.8730 290° West 457 526 33,000  Climbing FlightAware ADS-B
Sun 04:56:36 AM 56.7913 -8.9410 290° West 466 536 31,500 -2,500 Descending FlightAware UK
Sun 04:56:54 AM 56.8043 -9.0057 290° West 464 534 31,500 3,333 Level FlightAware UK
Sun 04:57:03 AM 56.8040 -9.0340 290° West 460 529 33,000 1,837 Climbing FlightAware ADS-B
Sun 04:57:43 AM 56.8340 -9.1820 290° West 461 531 33,000  Level FlightAware ADS-B
Sun 04:58:28 AM 56.8670 -9.3450 290° West 458 527 33,000  Level FlightAware ADS-B
Sun 04:59:08 AM 56.8960 -9.4940 290° West 458 527 33,000  Level FlightAware ADS-B
Sun 04:59:48 AM 56.9250 -9.6390 290° West 459 528 33,000  Level FlightAware ADS-B
Sun 05:00:33 AM 56.9580 -9.8070 290° West 460 529 33,000  Level FlightAware ADS-B
Sun 05:01:13 AM 56.9860 -9.9520 290° West 463 533 33,000  Level FlightAware ADS-B
Sun 05:01:58 AM 57.0250 -10.1240 293° West 470 541 33,000  Level FlightAware ADS-B
Sun 05:02:38 AM 57.0600 -10.2630 295° West 472 543 33,000  Level FlightAware ADS-B
Sun 05:03:23 AM 57.1030 -10.4340 295° West 473 544 33,000  Level FlightAware ADS-B
Sun 05:04:03 AM 57.1380 -10.5740 295° West 473 544 33,000  Level FlightAware ADS-B
Sun 05:04:43 AM 57.1740 -10.7230 294° West 474 545 33,000  Level FlightAware ADS-B
Sun 05:05:28 AM 57.2140 -10.8870 294° West 474 545 33,000  Level FlightAware ADS-B
Sun 05:06:08 AM 57.2510 -11.0370 295° West 474 545 33,000  Level FlightAware ADS-B
Sun 05:06:53 AM 57.2910 -11.2060 294° West 473 544 33,000  Level FlightAware ADS-B
Sun 05:07:48 AM 57.3330 -11.3860 293° West 473 544 33,000  Level FlightAware ADS-B
Sun 05:10:00 AM 57.3544 -11.8498 275° West  Level Estimated
Sun 05:10:33 AM 57.4770 -12.0020 275° West 465 535 33,000  Level FlightAware ADS-B
Sun 05:11:13 AM 57.5040 -12.1290 292° West 465 535 33,000  Level FlightAware ADS-B
Sun 05:11:53 AM 57.5320 -12.2550 293° West 465 535 33,000  Level FlightAware ADS-B
Sun 05:12:43 AM 57.5660 -12.4130 292° West 465 535 33,000  Level FlightAware ADS-B
Sun 05:13:23 AM 57.5930 -12.5390 292° West 465 535 33,000  Level FlightAware ADS-B
Sun 05:14:03 AM 57.6210 -12.6660 292° West 465 535 33,000  Level FlightAware ADS-B
Sun 05:14:43 AM 57.6480 -12.7930 292° West 465 535 33,000  Level FlightAware ADS-B
Sun 05:15:23 AM 57.6750 -12.9190 292° West 465 535 33,000  Level FlightAware ADS-B
Sun 05:16:13 AM 57.7100 -13.0780 292° West 465 535 33,000  Level FlightAware ADS-B
Sun 05:16:53 AM 57.7370 -13.2050 292° West 465 535 33,000  Level FlightAware ADS-B
Sun 05:17:33 AM 57.7640 -13.3320 292° West 465 535 33,000  Level FlightAware ADS-B
Sun 05:18:13 AM 57.7920 -13.4590 293° West 465 535 33,000  Level FlightAware ADS-B
Sun 05:18:53 AM 57.8190 -13.5870 292° West 465 535 33,000  Level FlightAware ADS-B
Sun 05:19:43 AM 57.8530 -13.7460 292° West 465 535 33,000  Level FlightAware ADS-B
Sun 05:22:00 AM 57.8639 -14.2356 273° West  Level Estimated
Sun 05:23:00 AM 57.8681 -14.4501 272° West  Level Estimated
Sun 05:24:00 AM 57.9166 -14.6594 294° West  Level FlightAware Approximate
Sun 05:25:00 AM 57.9647 -14.8692 293° West  Level FlightAware Approximate
Sun 05:26:00 AM 58.0125 -15.0796 293° West  Level FlightAware Approximate
Sun 05:27:00 AM 58.0599 -15.2906 293° West  Level FlightAware Approximate
Sun 05:28:00 AM 58.1070 -15.5021 293° West  Level FlightAware Approximate
Sun 05:29:00 AM 58.1537 -15.7142 293° West  Level FlightAware Approximate
Sun 05:30:00 AM 58.2001 -15.9268 293° West  Level FlightAware Approximate
Sun 05:31:00 AM 58.2462 -16.1400 292° West  Level FlightAware Approximate
Sun 05:32:00 AM 58.2918 -16.3538 292° West  Level FlightAware Approximate
Sun 05:33:00 AM 58.3371 -16.5681 292° West  Level FlightAware Approximate
Sun 05:34:00 AM 58.3821 -16.7829 292° West  Level FlightAware Approximate
Sun 05:35:00 AM 58.4267 -16.9983 292° West  Level FlightAware Approximate
Sun 05:36:00 AM 58.4709 -17.2142 291° West  Level FlightAware Approximate
Sun 05:37:00 AM 58.5148 -17.4307 291° West  Level FlightAware Approximate
Sun 05:38:00 AM 58.5583 -17.6477 291° West  Level FlightAware Approximate
Sun 05:39:00 AM 58.6014 -17.8652 291° West  Level FlightAware Approximate
Sun 05:40:00 AM 58.6442 -18.0833 291° West  Level FlightAware Approximate
Sun 05:41:00 AM 58.6866 -18.3019 291° West  Level FlightAware Approximate
Sun 05:42:00 AM 58.7286 -18.5210 290° West  Level FlightAware Approximate
Sun 05:43:00 AM 58.7703 -18.7407 290° West  Level FlightAware Approximate
Sun 05:44:00 AM 58.8115 -18.9609 290° West  Level FlightAware Approximate
Sun 05:45:00 AM 58.8524 -19.1816 290° West  Level FlightAware Approximate
Sun 05:46:00 AM 58.8930 -19.4029 290° West  Level FlightAware Approximate
Sun 05:46:00 AM 59.0000 -20.0000 285° West 453 521 33,000  Level ETMS Enhanced Traffic Management System
Sun 05:47:00 AM 58.9331 -19.6246 289° West  Level FlightAware Approximate
Sun 05:48:00 AM 58.9729 -19.8469 289° West  Level FlightAware Approximate
Sun 05:49:00 AM 59.0109 -20.0774 285° West  Level FlightAware Approximate
Sun 05:50:00 AM 59.0425 -20.3050 285° West  Level FlightAware Approximate
Sun 05:51:00 AM 59.0738 -20.5330 285° West  Level FlightAware Approximate
Sun 05:52:00 AM 59.2242 -21.6623 284° West 453 521 33,000  Level FlightAware Transoceanic
Sun 05:53:00 AM 59.2544 -21.9015 284° West 453 521 33,000  Level FlightAware Transoceanic
Sun 05:54:00 AM 59.2843 -22.1412 284° West 453 521 33,000  Level FlightAware Transoceanic
Sun 05:55:00 AM 59.3137 -22.3812 283° West 453 521 33,000  Level FlightAware Transoceanic
Sun 05:56:00 AM 59.3426 -22.6217 283° West 453 521 33,000  Level FlightAware Transoceanic
Sun 05:57:00 AM 59.3711 -22.8626 283° West 453 521 33,000  Level FlightAware Transoceanic
Sun 05:58:00 AM 59.3992 -23.1038 283° West 453 521 33,000  Level FlightAware Transoceanic
Sun 05:59:00 AM 59.4268 -23.3455 283° West 453 521 33,000  Level FlightAware Transoceanic
Sun 06:00:00 AM 59.4540 -23.5876 282° West 453 521 33,000  Level FlightAware Transoceanic
Sun 06:01:00 AM 59.4807 -23.8300 282° West 453 521 33,000  Level FlightAware Transoceanic
Sun 06:02:00 AM 59.5070 -24.0729 282° West 453 521 33,000  Level FlightAware Transoceanic
Sun 06:03:00 AM 59.5328 -24.3161 282° West 453 521 33,000  Level FlightAware Transoceanic
Sun 06:04:00 AM 59.5582 -24.5597 282° West 453 521 33,000  Level FlightAware Transoceanic
Sun 06:05:00 AM 59.5831 -24.8036 281° West 453 521 33,000  Level FlightAware Transoceanic
Sun 06:06:00 AM 59.6076 -25.0479 281° West 453 521 33,000  Level FlightAware Transoceanic
Sun 06:07:00 AM 59.6316 -25.2926 281° West 453 521 33,000  Level FlightAware Transoceanic
Sun 06:08:00 AM 59.6552 -25.5376 281° West 453 521 33,000  Level FlightAware Transoceanic
Sun 06:09:00 AM 59.6783 -25.7829 280° West 453 521 33,000  Level FlightAware Transoceanic
Sun 06:10:00 AM 59.7009 -26.0286 280° West 453 521 33,000  Level FlightAware Transoceanic
Sun 06:11:00 AM 59.7231 -26.2746 280° West 453 521 33,000  Level FlightAware Transoceanic
Sun 06:12:00 AM 59.7448 -26.5210 280° West 453 521 33,000  Level FlightAware Transoceanic
Sun 06:13:00 AM 59.7661 -26.7676 280° West 453 521 33,000  Level FlightAware Transoceanic
Sun 06:14:00 AM 59.7869 -27.0146 279° West 453 521 33,000  Level FlightAware Transoceanic
Sun 06:15:00 AM 59.8072 -27.2618 279° West 453 521 33,000  Level FlightAware Transoceanic
Sun 06:16:00 AM 59.8271 -27.5094 279° West 453 521 33,000  Level FlightAware Transoceanic
Sun 06:17:00 AM 59.8465 -27.7572 279° West 453 521 33,000  Level FlightAware Transoceanic
Sun 06:18:00 AM 59.8654 -28.0054 279° West 453 521 33,000  Level FlightAware Transoceanic
Sun 06:19:00 AM 59.8839 -28.2538 278° West 453 521 33,000  Level FlightAware Transoceanic
Sun 06:20:00 AM 59.9019 -28.5025 278° West 453 521 33,000  Level FlightAware Transoceanic
Sun 06:21:00 AM 59.9194 -28.7514 278° West 453 521 33,000  Level FlightAware Transoceanic
Sun 06:22:00 AM 59.9365 -29.0007 278° West 453 521 33,000  Level FlightAware Transoceanic
Sun 06:23:00 AM 59.9530 -29.2501 277° West 453 521 33,000  Level FlightAware Transoceanic
Sun 06:24:00 AM 59.9692 -29.4998 277° West 453 521 33,000  Level FlightAware Transoceanic
Sun 06:25:00 AM 59.9848 -29.7498 277° West 453 521 33,000  Level FlightAware Transoceanic
Sun 06:26:00 AM 59.9994 -29.9907 277° West  Level FlightAware Approximate
Sun 06:27:00 AM 60.0137 -30.2317 277° West  Level FlightAware Approximate
Sun 06:28:00 AM 60.0083 -30.2233 274° West  Level FlightAware Approximate
Sun 06:29:00 AM 60.0168 -30.4654 274° West  Level FlightAware Approximate
Sun 06:30:00 AM 60.0249 -30.7077 274° West  Level FlightAware Approximate
Sun 06:31:00 AM 60.0326 -30.9501 274° West  Level FlightAware Approximate
Sun 06:32:00 AM 60.0398 -31.1926 274° West  Level FlightAware Approximate
Sun 06:33:00 AM 60.0465 -31.4352 273° West  Level FlightAware Approximate
Sun 06:34:00 AM 60.0528 -31.6779 273° West  Level FlightAware Approximate
Sun 06:35:00 AM 60.0587 -31.9207 273° West  Level FlightAware Approximate
Sun 06:36:00 AM 60.0641 -32.1636 273° West  Level FlightAware Approximate
Sun 06:37:00 AM 60.0691 -32.4066 272° West  Level FlightAware Approximate
Sun 06:38:00 AM 60.0737 -32.6496 272° West  Level FlightAware Approximate
Sun 06:39:00 AM 60.0778 -32.8927 272° West  Level FlightAware Approximate
Sun 06:40:00 AM 60.0814 -33.1358 272° West  Level FlightAware Approximate
Sun 06:41:00 AM 60.0846 -33.3790 272° West  Level FlightAware Approximate
Sun 06:42:00 AM 60.0873 -33.6222 271° West  Level FlightAware Approximate
Sun 06:43:00 AM 60.0896 -33.8655 271° West  Level FlightAware Approximate
Sun 06:43:00 AM 60.0000 -30.0000 274° West 473 544 33,000  Level ETMS Enhanced Traffic Management System
Sun 06:44:00 AM 60.0915 -34.1088 271° West  Level FlightAware Approximate
Sun 06:45:00 AM 60.0929 -34.3522 271° West  Level FlightAware Approximate
Sun 06:46:00 AM 60.0939 -34.5955 271° West  Level FlightAware Approximate
Sun 06:47:00 AM 60.0944 -34.8389 270° West  Level FlightAware Approximate
Sun 06:48:00 AM 60.0945 -35.0822 270° West  Level FlightAware Approximate
Sun 06:49:00 AM 60.0941 -35.3256 270° West  Level FlightAware Approximate
Sun 06:50:00 AM 60.0921 -35.7909 269° West 473 544 33,000  Level FlightAware Transoceanic
Sun 06:51:00 AM 60.0903 -36.0546 269° West 473 544 33,000  Level FlightAware Transoceanic
Sun 06:52:00 AM 60.0879 -36.3181 269° West 473 544 33,000  Level FlightAware Transoceanic
Sun 06:53:00 AM 60.0851 -36.5817 269° West 473 544 33,000  Level FlightAware Transoceanic
Sun 06:54:00 AM 60.0816 -36.8451 268° West 473 544 33,000  Level FlightAware Transoceanic
Sun 06:55:00 AM 60.0777 -37.1086 268° West 473 544 33,000  Level FlightAware Transoceanic
Sun 06:56:00 AM 60.0733 -37.3719 268° West 473 544 33,000  Level FlightAware Transoceanic
Sun 06:57:00 AM 60.0683 -37.6352 268° West 473 544 33,000  Level FlightAware Transoceanic
Sun 06:58:00 AM 60.0628 -37.8984 267° West 473 544 33,000  Level FlightAware Transoceanic
Sun 06:59:00 AM 60.0568 -38.1615 267° West 473 544 33,000  Level FlightAware Transoceanic
Sun 07:00:00 AM 60.0502 -38.4245 267° West 473 544 33,000  Level FlightAware Transoceanic
Sun 07:01:00 AM 60.0432 -38.6874 267° West 473 544 33,000  Level FlightAware Transoceanic
Sun 07:02:00 AM 60.0356 -38.9502 267° West 473 544 33,000  Level FlightAware Transoceanic
Sun 07:03:00 AM 60.0275 -39.2129 266° West 473 544 33,000  Level FlightAware Transoceanic
Sun 07:04:00 AM 60.0188 -39.4754 266° West 473 544 33,000  Level FlightAware Transoceanic
Sun 07:05:00 AM 60.0097 -39.7378 266° West 473 544 33,000  Level FlightAware Transoceanic
Sun 07:06:00 AM 60.0008 -39.9798 266° West  Level FlightAware Approximate
Sun 07:07:00 AM 59.9914 -40.2217 266° West  Level FlightAware Approximate
Sun 07:08:00 AM 59.9699 -40.1930 253° West  Level FlightAware Approximate
Sun 07:09:00 AM 59.9335 -40.4241 253° West  Level FlightAware Approximate
Sun 07:10:00 AM 59.8966 -40.6547 252° West  Level FlightAware Approximate
Sun 07:11:00 AM 59.8594 -40.8848 252° West  Level FlightAware Approximate
Sun 07:12:00 AM 59.8218 -41.1144 252° West  Level FlightAware Approximate
Sun 07:13:00 AM 59.7837 -41.3435 252° West  Level FlightAware Approximate
Sun 07:14:00 AM 59.7453 -41.5720 252° West  Level FlightAware Approximate
Sun 07:15:00 AM 59.7064 -41.8000 251° West  Level FlightAware Approximate
Sun 07:16:00 AM 59.6672 -42.0275 251° West  Level FlightAware Approximate
Sun 07:17:00 AM 59.6275 -42.2544 251° West  Level FlightAware Approximate
Sun 07:18:00 AM 59.5875 -42.4809 251° West  Level FlightAware Approximate
Sun 07:19:00 AM 59.5471 -42.7067 251° West  Level FlightAware Approximate
Sun 07:20:00 AM 59.5063 -42.9320 250° West  Level FlightAware Approximate
Sun 07:21:00 AM 59.4659 -43.1574 251° West  Level FlightAware Approximate
Sun 07:22:00 AM 59.4253 -43.3823 251° West  Level FlightAware Approximate
Sun 07:23:00 AM 59.3842 -43.6066 250° West  Level FlightAware Approximate
Sun 07:24:00 AM 59.3428 -43.8304 250° West  Level FlightAware Approximate
Sun 07:25:00 AM 59.3010 -44.0536 250° West  Level FlightAware Approximate
Sun 07:26:00 AM 59.2588 -44.2763 250° West  Level FlightAware Approximate
Sun 07:26:17 AM 60.0000 -40.0000 253° West 461 531 33,000  Level ETMS Enhanced Traffic Management System
Sun 07:27:00 AM 59.2162 -44.4985 250° West  Level FlightAware Approximate
Sun 07:28:00 AM 59.1733 -44.7201 249° West  Level FlightAware Approximate
Sun 07:29:00 AM 59.1300 -44.9411 249° West  Level FlightAware Approximate
Sun 07:30:00 AM 59.0863 -45.1616 249° West  Level FlightAware Approximate
Sun 07:31:00 AM 59.0422 -45.3815 249° West  Level FlightAware Approximate
Sun 07:32:00 AM 58.8334 -46.4162 248° West 461 531 33,000  Level FlightAware Transoceanic
Sun 07:33:00 AM 58.7843 -46.6451 247° West 461 531 33,000  Level FlightAware Transoceanic
Sun 07:34:00 AM 58.7347 -46.8734 247° West 461 531 33,000  Level FlightAware Transoceanic
Sun 07:35:00 AM 58.6848 -47.1010 247° West 461 531 33,000  Level FlightAware Transoceanic
Sun 07:36:00 AM 58.6345 -47.3280 247° West 461 531 33,000  Level FlightAware Transoceanic
Sun 07:37:00 AM 58.5838 -47.5543 247° West 461 531 33,000  Level FlightAware Transoceanic
Sun 07:38:00 AM 58.5326 -47.7800 246° West 461 531 33,000  Level FlightAware Transoceanic
Sun 07:39:00 AM 58.4811 -48.0050 246° West 461 531 33,000  Level FlightAware Transoceanic
Sun 07:40:00 AM 58.4292 -48.2293 246° West 461 531 33,000  Level FlightAware Transoceanic
Sun 07:41:00 AM 58.3769 -48.4530 246° West 461 531 33,000  Level FlightAware Transoceanic
Sun 07:42:00 AM 58.3242 -48.6760 246° West 461 531 33,000  Level FlightAware Transoceanic
Sun 07:43:00 AM 58.2711 -48.8983 245° Southwest 461 531 33,000  Level FlightAware Transoceanic
Sun 07:44:00 AM 58.2177 -49.1200 245° Southwest 461 531 33,000  Level FlightAware Transoceanic
Sun 07:45:00 AM 58.1638 -49.3410 245° Southwest 461 531 33,000  Level FlightAware Transoceanic
Sun 07:46:00 AM 58.1096 -49.5614 245° Southwest 461 531 33,000  Level FlightAware Transoceanic
Sun 07:47:00 AM 58.0550 -49.7810 245° Southwest 461 531 33,000 400 Level FlightAware Transoceanic
Sun 07:48:00 AM 58.0030 -49.9881 245° Southwest  Level FlightAware Approximate
Sun 07:49:00 AM 57.9507 -50.1945 245° Southwest  Level FlightAware Approximate
Sun 07:50:00 AM 57.9671 -50.1927 252° West  Level FlightAware Approximate
Sun 07:51:00 AM 57.9296 -50.4102 252° West  Level FlightAware Approximate
Sun 07:51:00 AM 58.0000 -50.0000 252° West 456 525 35,000  Level ETMS Enhanced Traffic Management System
Sun 07:52:00 AM 57.8917 -50.6271 252° West  Level FlightAware Approximate
Sun 07:53:00 AM 57.8534 -50.8436 252° West  Level FlightAware Approximate
Sun 07:54:00 AM 57.8148 -51.0597 252° West  Level FlightAware Approximate
Sun 07:55:00 AM 57.7758 -51.2753 251° West  Level FlightAware Approximate
Sun 07:56:00 AM 57.7364 -51.4904 251° West  Level FlightAware Approximate
Sun 07:57:00 AM 57.6388 -52.0289 251° West 456 525 35,000  Level FlightAware Transoceanic
Sun 07:58:00 AM 57.5967 -52.2518 250° West 456 525 35,000  Level FlightAware Transoceanic
Sun 07:59:00 AM 57.5542 -52.4742 250° West 456 525 35,000  Level FlightAware Transoceanic
Sun 08:00:00 AM 57.5113 -52.6961 250° West 456 525 35,000  Level FlightAware Transoceanic
Sun 08:01:00 AM 57.4680 -52.9174 250° West 456 525 35,000  Level FlightAware Transoceanic
Sun 08:02:00 AM 57.4243 -53.1382 250° West 456 525 35,000  Level FlightAware Transoceanic
Sun 08:03:00 AM 57.3802 -53.3585 250° West 456 525 35,000  Level FlightAware Transoceanic
Sun 08:04:00 AM 57.3358 -53.5782 249° West 456 525 35,000  Level FlightAware Transoceanic
Sun 08:05:00 AM 57.2910 -53.7975 249° West 456 525 35,000  Level FlightAware Transoceanic
Sun 08:06:00 AM 57.2458 -54.0161 249° West 456 525 35,000  Level FlightAware Transoceanic
Sun 08:07:00 AM 57.2002 -54.2343 249° West 456 525 35,000  Level FlightAware Transoceanic
Sun 08:08:00 AM 57.1542 -54.4519 249° West 456 525 35,000  Level FlightAware Transoceanic
Sun 08:09:00 AM 57.1079 -54.6689 248° West 456 525 35,000  Level FlightAware Transoceanic
Sun 08:10:00 AM 57.0611 -54.8855 248° West 456 525 35,000  Level FlightAware Transoceanic
Sun 08:11:00 AM 57.0141 -55.1014 248° West 456 525 35,000  Level FlightAware Transoceanic
Sun 08:11:25 AM 57.0500 -54.9333 247° West 450 518 35,000  Level Gander Center
Sun 08:12:00 AM 56.9666 -55.3169 248° West 456 525 35,000  Level FlightAware Transoceanic
Sun 08:12:25 AM 57.0000 -55.0833 239° Southwest 450 518 35,000  Level Gander Center
Sun 08:13:00 AM 56.9188 -55.5317 248° West 456 525 35,000  Level FlightAware Transoceanic
Sun 08:13:25 AM 56.9667 -55.3333 256° West 460 529 35,000  Level Gander Center
Sun 08:14:00 AM 56.8706 -55.7461 248° West 456 525 35,000  Level FlightAware Transoceanic
Sun 08:14:25 AM 56.9167 -55.5667 249° West 460 529 35,000  Level Gander Center
Sun 08:15:00 AM 56.8220 -55.9598 247° West 456 525 35,000  Level FlightAware Transoceanic
Sun 08:15:25 AM 56.8667 -55.7833 247° West 450 518 35,000  Level Gander Center
Sun 08:16:00 AM 56.7731 -56.1730 247° West 456 525 35,000  Level FlightAware Transoceanic
Sun 08:16:25 AM 56.8167 -56.0000 247° West 450 518 35,000  Level Gander Center
Sun 08:17:00 AM 56.7238 -56.3857 247° West 456 525 35,000  Level FlightAware Transoceanic
Sun 08:17:25 AM 56.7667 -56.2167 247° West 460 529 35,000  Level Gander Center
Sun 08:18:25 AM 56.7000 -56.3833 234° Southwest 460 529 35,000  Level Gander Center
Sun 08:19:17 AM 56.6000 -56.5833 228° Southwest 470 541 35,000  Level Gander Center
Sun 08:20:17 AM 56.5167 -56.7333 225° Southwest 470 541 35,000  Level Gander Center
Sun 08:21:17 AM 56.4333 -56.9333 233° Southwest 470 541 35,000  Level Gander Center
Sun 08:22:17 AM 56.3333 -57.1000 223° Southwest 470 541 35,000  Level Gander Center
Sun 08:23:17 AM 56.2333 -57.2500 220° Southwest 470 541 35,000  Level Gander Center
Sun 08:24:17 AM 56.1667 -57.4500 239° Southwest 460 529 35,000  Level Gander Center
Sun 08:25:17 AM 56.0667 -57.6000 220° Southwest 460 529 35,000  Level Gander Center
Sun 08:26:17 AM 55.9833 -57.7667 228° Southwest 460 529 35,000 400 Level Gander Center
Sun 08:27:17 AM 55.8833 -57.9167 220° Southwest 460 529 35,800 1,050 Climbing Gander Center
Sun 08:28:17 AM 55.8000 -58.1000 231° Southwest 460 529 37,100 1,100 Climbing Gander Center
Sun 08:29:17 AM 55.7167 -58.2500 225° Southwest 460 529 38,000 450 Climbing Gander Center
Sun 08:30:17 AM 55.6167 -58.4167 223° Southwest 460 529 38,000  Level Gander Center
Sun 08:31:17 AM 55.5333 -58.5667 226° Southwest 450 518 38,000  Level Gander Center
Sun 08:32:17 AM 55.4500 -58.7500 231° Southwest 450 518 38,000  Level Gander Center
Sun 08:33:17 AM 55.3667 -58.9000 226° Southwest 450 518 38,000  Level Gander Center
Sun 08:34:25 AM 55.2667 -59.0833 226° Southwest 450 518 38,000  Level Gander Center
Sun 08:35:25 AM 55.1667 -59.2333 221° Southwest 460 529 38,000  Level Gander Center
Sun 08:36:25 AM 55.0833 -59.3833 226° Southwest 460 529 38,000  Level Gander Center
Sun 08:37:25 AM 54.9833 -59.5667 226° Southwest 460 529 38,000  Level Gander Center
Sun 08:38:25 AM 54.9000 -59.7167 226° Southwest 460 529 38,000  Level Gander Center
Sun 08:39:25 AM 54.8000 -59.8667 221° Southwest 460 529 38,000  Level Gander Center
Sun 08:40:25 AM 54.7333 -60.0167 232° Southwest 460 529 38,000  Level Gander Center
Sun 08:41:25 AM 54.6333 -60.1500 218° Southwest 460 529 38,000  Level Gander Center
Sun 08:42:25 AM 54.5333 -60.3333 227° Southwest 460 529 38,000  Level Gander Center
Sun 08:43:25 AM 54.4500 -60.4833 226° Southwest 460 529 38,000  Level Gander Center
Sun 08:44:25 AM 54.3500 -60.6167 218° Southwest 460 529 38,000  Level Gander Center
Sun 08:45:25 AM 54.2667 -60.8000 232° Southwest 460 529 38,000  Level Gander Center
Sun 08:46:25 AM 54.1667 -60.9333 218° Southwest 460 529 38,000  Level Gander Center
Sun 08:47:25 AM 54.0833 -61.0833 227° Southwest 460 529 38,000  Level Gander Center
Sun 08:48:25 AM 53.9833 -61.2333 221° Southwest 450 518 38,000  Level Gander Center
Sun 08:49:25 AM 53.9000 -61.3667 223° Southwest 450 518 38,000  Level Gander Center
Sun 08:50:25 AM 53.8167 -61.5167 227° Southwest 450 518 38,000  Level Gander Center
Sun 08:51:25 AM 53.7167 -61.6833 225° Southwest 450 518 38,000  Level Gander Center
Sun 08:52:25 AM 53.6333 -61.8167 224° Southwest 450 518 38,000  Level Gander Center
Sun 08:53:25 AM 53.5333 -61.9500 218° Southwest 450 518 38,000  Level Gander Center
Sun 08:54:25 AM 53.4500 -62.1000 227° Southwest 450 518 38,000  Level Gander Center
Sun 08:55:25 AM 53.3500 -62.2667 225° Southwest 450 518 38,000  Level Gander Center
Sun 08:56:25 AM 53.2500 -62.4000 219° Southwest 450 518 38,000  Level Gander Center
Sun 08:57:25 AM 53.1500 -62.5333 219° Southwest 450 518 38,000  Level Gander Center
Sun 08:58:25 AM 53.0667 -62.6667 224° Southwest 450 518 38,000  Level Gander Center
Sun 08:59:25 AM 52.9667 -62.8167 222° Southwest 450 518 38,000  Level Gander Center
Sun 09:00:25 AM 52.8833 -62.9667 227° Southwest 450 518 38,000  Level Gander Center
Sun 09:01:25 AM 52.7833 -63.0833 215° Southwest 450 518 38,000  Level Gander Center
Sun 09:02:25 AM 52.6833 -63.2333 222° Southwest 450 518 38,000  Level Gander Center
Sun 09:03:25 AM 52.6000 -63.3667 224° Southwest 450 518 38,000  Level Gander Center
Sun 09:04:25 AM 52.4833 -63.5000 215° Southwest 460 529 38,000  Level Gander Center
Sun 09:05:25 AM 52.3833 -63.6333 219° Southwest 460 529 38,000  Level Gander Center
Sun 09:06:25 AM 52.3000 -63.7667 224° Southwest 450 518 38,000  Level Gander Center
Sun 09:07:25 AM 52.2000 -63.9000 219° Southwest 450 518 38,000  Level Gander Center
Sun 09:08:25 AM 52.1167 -64.0333 225° Southwest 450 518 38,000  Level Gander Center
Sun 09:09:25 AM 52.0000 -64.1667 215° Southwest 450 518 38,000  Level Gander Center
Sun 09:10:25 AM 51.9000 -64.2833 216° Southwest 450 518 38,000  Level Gander Center
Sun 09:11:25 AM 51.8167 -64.4167 225° Southwest 450 518 38,000  Level Gander Center
Sun 09:12:25 AM 51.7167 -64.5500 220° Southwest 450 518 38,000  Level Gander Center
Sun 09:13:25 AM 51.6167 -64.6833 220° Southwest 450 518 38,000  Level Gander Center
Sun 09:14:25 AM 51.5167 -64.8000 216° Southwest 450 518 38,000  Level Gander Center
Sun 09:15:25 AM 51.4333 -64.9333 225° Southwest 450 518 38,000  Level Gander Center
Sun 09:16:25 AM 51.3333 -65.0500 216° Southwest 450 518 38,000  Level Gander Center
Sun 09:17:25 AM 51.2167 -65.1833 216° Southwest 460 529 38,000  Level Gander Center
Sun 09:18:25 AM 51.1167 -65.3000 216° Southwest 460 529 38,000  Level Gander Center
Sun 09:19:25 AM 51.0333 -65.4333 225° Southwest 460 529 38,000  Level Gander Center
Sun 09:20:25 AM 50.9333 -65.5500 216° Southwest 460 529 38,000  Level Gander Center
Sun 09:21:25 AM 50.8167 -65.6833 216° Southwest 460 529 38,000  Level Gander Center
Sun 09:21:45 AM 50.7833 -65.7000 198° South 460 529 38,000  Level Montreal Center
Sun 09:22:45 AM 50.7000 -65.8167 222° Southwest 460 529 38,000  Level Montreal Center
Sun 09:23:45 AM 50.5833 -65.9167 209° Southwest 460 529 38,000  Level Montreal Center
Sun 09:24:45 AM 50.5000 -66.0500 226° Southwest 460 529 38,000  Level Montreal Center
Sun 09:25:45 AM 50.4000 -66.1833 220° Southwest 450 518 38,000  Level Montreal Center
Sun 09:26:45 AM 50.2833 -66.3167 216° Southwest 450 518 38,000  Level Montreal Center
Sun 09:27:45 AM 50.2000 -66.4333 222° Southwest 460 529 38,000  Level Montreal Center
Sun 09:28:45 AM 50.0833 -66.5667 216° Southwest 450 518 38,000  Level Montreal Center
Sun 09:29:45 AM 50.0000 -66.6667 218° Southwest 450 518 38,000  Level Montreal Center
Sun 09:30:45 AM 49.8833 -66.7833 213° Southwest 460 529 38,000  Level Montreal Center
Sun 09:31:45 AM 49.8000 -66.9167 226° Southwest 460 529 38,000  Level Montreal Center
Sun 09:32:45 AM 49.6833 -67.0333 213° Southwest 460 529 38,000  Level Montreal Center
Sun 09:33:45 AM 49.5833 -67.1667 221° Southwest 460 529 38,000  Level Montreal Center
Sun 09:34:45 AM 49.4833 -67.2500 208° Southwest 460 529 38,000  Level Montreal Center
Sun 09:35:45 AM 49.3833 -67.3833 221° Southwest 460 529 38,000  Level Montreal Center
Sun 09:36:45 AM 49.2833 -67.5000 217° Southwest 460 529 38,000  Level Montreal Center
Sun 09:37:45 AM 49.1667 -67.6167 213° Southwest 460 529 38,000  Level Montreal Center
Sun 09:38:45 AM 49.0833 -67.7333 223° Southwest 450 518 38,000  Level Montreal Center
Sun 09:39:45 AM 48.9667 -67.8667 217° Southwest 450 518 38,000  Level Montreal Center
Sun 09:40:45 AM 48.8833 -67.9500 213° Southwest 450 518 38,000  Level Montreal Center
Sun 09:41:45 AM 48.7667 -68.0833 217° Southwest 450 518 38,000  Level Montreal Center
Sun 09:42:45 AM 48.6667 -68.2000 218° Southwest 450 518 38,000  Level Montreal Center
Sun 09:43:45 AM 48.5667 -68.3167 218° Southwest 450 518 38,000  Level Montreal Center
Sun 09:44:45 AM 48.4500 -68.4333 214° Southwest 450 518 38,000  Level Montreal Center
Sun 09:45:45 AM 48.3667 -68.5167 214° Southwest 450 518 38,000  Level Montreal Center
Sun 09:46:45 AM 48.2500 -68.6333 214° Southwest 450 518 38,000  Level Montreal Center
Sun 09:47:45 AM 48.1500 -68.7500 218° Southwest 450 518 38,000  Level Montreal Center
Sun 09:48:45 AM 48.0667 -68.8667 223° Southwest 450 518 38,000  Level Montreal Center
Sun 09:49:45 AM 47.9500 -68.9833 214° Southwest 450 518 38,000  Level Montreal Center
Sun 09:50:45 AM 47.8667 -69.1000 223° Southwest 450 518 38,000  Level Montreal Center
Sun 09:51:45 AM 47.7500 -69.2167 214° Southwest 450 518 38,000  Level Montreal Center
Sun 09:52:45 AM 47.6500 -69.3000 209° Southwest 450 518 38,000  Level Montreal Center
Sun 09:53:45 AM 47.5500 -69.4167 218° Southwest 450 518 38,000  Level Montreal Center
Sun 09:54:45 AM 47.4500 -69.5333 218° Southwest 450 518 38,000  Level Montreal Center
Sun 09:55:45 AM 47.3500 -69.6167 209° Southwest 440 506 38,000  Level Montreal Center
Sun 09:56:45 AM 47.2500 -69.7333 218° Southwest 440 506 38,000  Level Montreal Center
Sun 09:57:45 AM 47.1500 -69.8500 218° Southwest 440 506 38,000  Level Montreal Center
Sun 09:58:45 AM 47.0500 -69.9500 214° Southwest 440 506 38,000  Level Montreal Center
Sun 09:59:45 AM 46.9333 -70.0333 206° Southwest 440 506 38,000  Level Montreal Center
Sun 10:00:45 AM 46.8500 -70.1500 224° Southwest 440 506 38,000  Level Montreal Center
Sun 10:01:45 AM 46.7500 -70.2667 219° Southwest 440 506 38,000  Level Montreal Center
Sun 10:02:45 AM 46.6333 -70.3667 210° Southwest 440 506 38,000  Level Montreal Center
Sun 10:03:45 AM 46.5333 -70.4500 210° Southwest 440 506 38,000  Level Montreal Center
Sun 10:04:45 AM 46.4333 -70.5667 219° Southwest 440 506 38,000  Level Montreal Center
Sun 10:05:45 AM 46.3333 -70.6667 215° Southwest 440 506 38,000  Level Montreal Center
Sun 10:06:45 AM 46.2333 -70.7500 210° Southwest 440 506 38,000  Level Montreal Center
Sun 10:07:45 AM 46.1167 -70.8667 215° Southwest 440 506 38,000  Level Montreal Center
Sun 10:08:45 AM 46.0333 -70.9667 220° Southwest 440 506 38,000  Level Montreal Center
Sun 10:09:45 AM 45.9333 -71.0667 215° Southwest 440 506 38,000  Level Montreal Center
Sun 10:10:45 AM 45.8333 -71.1500 210° Southwest 440 506 38,000  Level Montreal Center
Sun 10:11:45 AM 45.7167 -71.2667 215° Southwest 440 506 38,000  Level Montreal Center
Sun 10:12:45 AM 45.6333 -71.3667 220° Southwest 440 506 38,000  Level Montreal Center
Sun 10:13:45 AM 45.5333 -71.4500 210° Southwest 440 506 38,000 -300 Level Montreal Center
Sun 10:14:45 AM 45.4167 -71.5500 211° Southwest 440 506 37,400 -500 Descending Montreal Center
Sun 10:15:45 AM 45.3167 -71.6500 215° Southwest 440 506 37,000 -59 Descending Montreal Center
Sun 10:21:33 AM 44.8380 -72.3280 215° Southwest 432 497 37,000  Level FlightAware ADS-B
Sun 10:22:13 AM 44.7690 -72.3830 210° Southwest 429 494 37,000  Level FlightAware ADS-B
Sun 10:22:53 AM 44.6990 -72.4380 209° Southwest 427 491 37,000 -565 Level FlightAware ADS-B
Sun 10:23:38 AM 44.6250 -72.4970 210° Southwest 429 494 36,200 -706 Descending FlightAware ADS-B
Sun 10:24:18 AM 44.5580 -72.5500 209° Southwest 429 494 36,000 -141 Descending FlightAware ADS-B
Sun 10:25:03 AM 44.4760 -72.6150 209° Southwest 424 488 36,000  Level FlightAware ADS-B
Sun 10:25:43 AM 44.4090 -72.6690 210° Southwest 423 487 36,000  Level FlightAware ADS-B
Sun 10:26:18 AM 44.3510 -72.7140 209° Southwest 424 488 36,000  Level FlightAware ADS-B
Sun 10:27:03 AM 44.2720 -72.7770 210° Southwest 424 488 36,000  Level FlightAware ADS-B
Sun 10:27:48 AM 44.1960 -72.8360 209° Southwest 424 488 36,000  Level FlightAware ADS-B
Sun 10:28:28 AM 44.1300 -72.8880 209° Southwest 422 486 36,000  Level FlightAware ADS-B
Sun 10:29:03 AM 44.0730 -72.9320 209° Southwest 421 484 36,000  Level FlightAware ADS-B
Sun 10:29:43 AM 44.0280 -72.9680 210° Southwest 422 486 36,000  Level FlightAware ADS-B
Sun 10:30:23 AM 43.9560 -73.0240 209° Southwest 422 486 36,000  Level FlightAware ADS-B
Sun 10:31:08 AM 43.8820 -73.0820 209° Southwest 422 486 36,000  Level FlightAware ADS-B
Sun 10:31:53 AM 43.8060 -73.1400 209° Southwest 424 488 36,000  Level FlightAware ADS-B
Sun 10:32:33 AM 43.7370 -73.1940 209° Southwest 424 488 36,000 -80 Level FlightAware ADS-B
Sun 10:33:08 AM 43.6730 -73.2440 209° Southwest 424 488 35,900 -1,200 Descending FlightAware ADS-B
Sun 10:33:58 AM 43.5890 -73.3090 209° Southwest 424 488 34,300 -2,080 Descending FlightAware ADS-B
Sun 10:34:23 AM 43.5490 -73.3400 209° Southwest 427 491 33,300 -2,571 Descending FlightAware ADS-B
Sun 10:35:08 AM 43.4790 -73.3930 209° Southwest 433 498 31,300 -3,075 Descending FlightAware ADS-B
Sun 10:35:43 AM 43.4080 -73.4480 209° Southwest 437 503 29,200 -2,333 Descending FlightAware ADS-B
Sun 10:36:38 AM 43.3230 -73.5120 209° Southwest 438 504 27,800 -884 Descending FlightAware ADS-B
Sun 10:37:18 AM 43.2630 -73.5580 209° Southwest 438 504 27,800  Level FlightAware ADS-B
Sun 10:37:58 AM 43.2030 -73.6040 209° Southwest 438 504 27,800 -3,741 Level FlightAware ADS-B
Sun 10:38:43 AM 43.0690 -73.6630 198° South 407 468 22,500 -5,294 Descending FlightAware ADS-B
Sun 10:39:23 AM 42.9920 -73.6980 198° South 407 468 20,300 -2,541 Descending FlightAware ADS-B
Sun 10:40:08 AM 42.9140 -73.7310 197° South 393 452 18,900 -1,976 Descending FlightAware ADS-B
Sun 10:40:48 AM 42.8450 -73.7610 198° South 388 447 17,500 -1,976 Descending FlightAware ADS-B
Sun 10:41:33 AM 42.7670 -73.7950 198° South 385 443 16,100 -1,200 Descending FlightAware ADS-B
Sun 10:42:08 AM 42.7130 -73.8180 197° South 379 436 15,900 -114 Descending FlightAware ADS-B
Sun 10:43:18 AM 42.6000 -73.8720 199° South 382 440 15,900  Level FlightAware ADS-B
Sun 10:43:58 AM 42.5430 -73.8980 199° South 382 440 15,900  Level FlightAware ADS-B
Sun 10:44:38 AM 42.4860 -73.9250 199° South 382 440 15,900  Level FlightAware ADS-B
Sun 10:45:18 AM 42.4290 -73.9510 199° South 382 440 15,900  Level FlightAware ADS-B
Sun 10:45:58 AM 42.3730 -73.9780 200° South 382 440 15,900  Level FlightAware ADS-B
Sun 10:46:38 AM 42.3160 -74.0040 199° South 382 440 15,900 -686 Level FlightAware ADS-B
Sun 10:52:58 AM 41.6790 -74.2840 198° South 334 384 11,100 -711 Descending FlightAware ADS-B
Sun 10:53:23 AM 41.6460 -74.2980 198° South 334 384 11,100  Level FlightAware ADS-B
Sun 10:54:03 AM 41.5960 -74.3200 198° South 334 384 11,100  Level FlightAware ADS-B
Sun 10:54:43 AM 41.5460 -74.3410 197° South 334 384 11,100 -1,627 Level FlightAware ADS-B
Sun 10:55:02 AM 41.5300 -74.3425 197° South 315 362 9,500 -874 Descending Boston Center
Sun 11:00:40 AM 41.1088 -74.4854 197° South 281 323 5,900 -608 Descending FlightAware ADS-B
Sun 11:01:17 AM 41.0877 -74.4291 116° Southeast 280 322 5,700 -462 Descending FlightAware ADS-B
Sun 11:01:32 AM 41.0793 -74.4059 116° Southeast 276 318 5,500 -857 Descending FlightAware ADS-B
Sun 11:02:13 AM 41.0580 -74.3510 117° Southeast 278 320 4,900 -750 Descending FlightAware ADS-B
Sun 11:02:20 AM 41.0513 -74.3337 117° Southeast 271 312 4,900  Level FlightAware ADS-B
Sun 11:02:55 AM 41.0327 -74.2841 116° Southeast 258 297 4,900 -103 Level FlightAware ADS-B
Sun 11:03:18 AM 41.0210 -74.2521 116° Southeast 258 297 4,800 -308 Descending FlightAware ADS-B
Sun 11:03:34 AM 41.0133 -74.2315 116° Southeast 237 273 4,700 -774 Descending FlightAware ADS-B
Sun 11:03:49 AM 41.0058 -74.2116 117° Southeast 235 270 4,400 -1,200 Descending FlightAware ADS-B
Sun 11:03:59 AM 41.0010 -74.1991 117° Southeast 235 270 4,200 -545 Descending FlightAware ADS-B
Sun 11:04:44 AM 40.9768 -74.1435 120° Southeast 238 274 3,900 -393 Descending FlightAware ADS-B
Sun 11:05:00 AM 40.9663 -74.1249 127° Southeast 235 270 3,800 -667 Descending FlightAware ADS-B
Sun 11:05:20 AM 40.9497 -74.1069 141° Southeast 236 272 3,500 -973 Descending FlightAware ADS-B
Sun 11:05:37 AM 40.9328 -74.0981 159° South 220 253 3,200 -1,000 Descending FlightAware ADS-B
Sun 11:05:56 AM 40.9150 -74.0897 160° South 214 246 2,900 -462 Descending FlightAware ADS-B
Sun 11:06:16 AM 40.8973 -74.0813 160° South 199 229 2,900  Level FlightAware ADS-B
Sun 11:06:58 AM 40.8626 -74.0656 161° South 182 209 2,900  Level FlightAware ADS-B
Sun 11:07:02 AM 40.8595 -74.0652 174° South 186 214 2,900  Level FlightAware ADS-B
Sun 11:07:07 AM 40.8552 -74.0654 182° South 182 209 2,900  Level FlightAware ADS-B
Sun 11:07:11 AM 40.8518 -74.0666 195° South 179 206 2,900  Level FlightAware ADS-B
Sun 11:07:15 AM 40.8491 -74.0680 201° Southwest 177 204 2,900  Level FlightAware ADS-B
Sun 11:07:30 AM 40.8381 -74.0755 207° Southwest 175 201 2,900  Level FlightAware ADS-B
Sun 11:07:43 AM 40.8288 -74.0820 208° Southwest 176 203 2,900  Level FlightAware ADS-B
Sun 11:07:46 AM 40.8262 -74.0836 205° Southwest 177 204 2,900  Level FlightAware ADS-B
Sun 11:07:50 AM 40.8231 -74.0851 200° South 180 207 2,900 -750 Level FlightAware ADS-B
Sun 11:08:18 AM 40.7998 -74.0842 178° South 188 216 2,500 -1,077 Descending FlightAware ADS-B
Sun 11:08:29 AM 40.7904 -74.0829 174° South 185 213 2,200 -1,250 Descending FlightAware ADS-B
Sun 11:08:42 AM 40.7788 -74.0817 176° South 191 220 2,000 -1,000 Descending FlightAware ADS-B
Sun 11:08:59 AM 40.7643 -74.0812 179° South 188 216 1,700 -960 Descending FlightAware ADS-B
Sun 11:09:07 AM 40.7579 -74.0815 182° South 172 198 1,600 -720 Descending FlightAware ADS-B
Sun 11:09:24 AM 40.7452 -74.0825 183° South 160 184 1,400 -571 Descending FlightAware ADS-B
Sun 11:09:49 AM 40.7279 -74.0853 187° South 146 168 1,200 -571 Descending FlightAware ADS-B
Sun 11:10:06 AM 40.7162 -74.0875 188° South 143 165 1,000 -522 Descending FlightAware ADS-B
Sun 11:10:35 AM 40.7023 -74.0992 213° Southwest 124 143 800 -343 Descending FlightAware ADS-B
Sun 11:10:41 AM 40.7027 -74.1031 278° West 117 135 800 -462 Level FlightAware ADS-B
Sun 11:10:48 AM 40.7036 -74.1081 283° West 115 132 700 -750 Descending FlightAware ADS-B
Sun 11:11:37 AM 40.7069 -74.1438 277° West 123 142 100 -735 Descending FlightAware ADS-B

Login

Don't have an account? Register now (free) for customized features, flight alerts, and more!